Home > Products > Valid Products > TAF

000
FTUS41 KRLX 020800 AAA
TAFCRW
TAF AMD
KCRW 020844Z 0209/0306 00000KT 1/4SM FG VV001
     FM021230 00000KT 2SM BR BKN002
      TEMPO 0213/0214 4SM BR SCT005
     FM021400 VRB02KT 6SM HZ SCT250
     FM021700 25004KT P6SM FEW050 SCT250
     FM022200 12004KT P6SM BKN250
     FM030500 15005KT P6SM SCT100 BKN250=



000
FTUS41 KRLX 020800 AAA
TAFPKB
TAF AMD
KPKB 020844Z 0209/0306 00000KT 1/4SM FG VV001
     FM021200 VRB03KT 2SM BR BKN002
     FM021300 00000KT 6SM HZ SCT080
     FM021400 VRB02KT P6SM SCT250
     FM021700 21004KT P6SM FEW050 BKN250
     FM022200 16004KT P6SM BKN250
     FM030500 14004KT P6SM BKN120=



000
FTUS41 KRLX 020800 AAA
TAFCKB
TAF AMD
KCKB 020844Z 0209/0306 00000KT 1/2SM FG OVC002
     FM021300 00000KT 5SM BR SCT003
     FM021400 VRB02KT P6SM SCT250
     FM021700 25004KT P6SM FEW050 BKN250
     FM022200 VRB03KT P6SM BKN250
     FM030500 13004KT P6SM SCT120=



000
FTUS41 KRLX 020800 AAA
TAFBKW
TAF AMD
KBKW 020844Z 0209/0306 VRB03KT P6SM SKC
      TEMPO 0209/0212 4SM BR SCT001
     FM021400 28003KT P6SM FEW045
     FM022100 14004KT P6SM SCT250
     FM030500 16008KT P6SM SCT250=



000
FTUS41 KRLX 020800 AAA
TAFEKN
TAF AMD
KEKN 020844Z 0209/0306 00000KT 1/4SM FG VV001
     FM021230 00000KT 2SM BR BKN002
     FM021400 VRB03KT 5SM BR SCT005
     FM021500 VRB03KT P6SM SCT250
     FM021700 VRB03KT P6SM FEW045 BKN250
     FM022300 00000KT P6SM SCT250
     FM030500 00000KT 4SM BR SCT001=



000
FTUS41 KRLX 020800 AAA
TAFHTS
TAF AMD
KHTS 020844Z 0209/0306 00000KT 1/2SM FG VV002
     FM021200 00000KT 2SM BR BKN002
     FM021300 00000KT 5SM BR SCT250
     FM021400 VRB03KT P6SM SCT250
     FM021700 23004KT P6SM FEW050 BKN250
     FM022200 16004KT P6SM BKN250
     FM030500 16005KT P6SM BKN120=



000
FTUS41 KRLX 020500
TAFCRW
TAF
KCRW 020538Z 0206/0306 00000KT 1/4SM FG VV001
     FM021200 00000KT 2SM BR BKN002
     FM021300 00000KT 4SM BR SCT002
     FM021400 VRB02KT 6SM HZ SCT250
     FM021700 25004KT P6SM FEW050 SCT250
     FM022200 12004KT P6SM BKN250
     FM030500 15005KT P6SM SCT100 BKN250=



000
FTUS41 KRLX 020500
TAFHTS
TAF
KHTS 020538Z 0206/0306 00000KT 1/2SM FG VV002
      TEMPO 0206/0208 2SM BR SCT001
     FM021200 00000KT 2SM BR BKN002
     FM021300 00000KT 5SM BR SCT250
     FM021400 VRB03KT P6SM SCT250
     FM021700 23004KT P6SM FEW050 BKN250
     FM022200 16004KT P6SM BKN250
     FM030500 16005KT P6SM BKN120=



000
FTUS41 KRLX 020500
TAFPKB
TAF
KPKB 020538Z 0206/0306 00000KT 1/4SM FG VV001
     FM021200 VRB03KT 2SM BR BKN002
     FM021300 00000KT 6SM HZ SCT250
     FM021400 VRB02KT P6SM SCT250
     FM021700 21004KT P6SM FEW050 BKN250
     FM022200 16004KT P6SM BKN250
     FM030500 14004KT P6SM BKN120=



000
FTUS41 KRLX 020500
TAFBKW
TAF
KBKW 020538Z 0206/0306 VRB03KT P6SM SKC
     FM021500 28003KT P6SM FEW045
     FM022100 14004KT P6SM SCT250
     FM030500 16008KT P6SM SCT250=



000
FTUS41 KRLX 020500
TAFCKB
TAF
KCKB 020538Z 0206/0306 00000KT 1/2SM FG OVC002
     FM021300 00000KT 5SM BR SCT003
     FM021400 VRB02KT P6SM SCT250
     FM021700 25004KT P6SM FEW050 BKN250
     FM022200 VRB03KT P6SM BKN250
     FM030500 13004KT P6SM SCT120=



000
FTUS41 KRLX 020500
TAFEKN
TAF
KEKN 020538Z 0206/0306 00000KT 1/4SM FG VV001
     FM021230 00000KT 2SM BR BKN002
     FM021400 VRB03KT 5SM BR SCT005
     FM021500 VRB03KT P6SM SCT250
     FM021700 VRB03KT P6SM FEW045 BKN250
     FM022300 00000KT P6SM SCT250
     FM030500 00000KT 4SM BR SCT001=



000
FTUS41 KRLX 020200 AAB
TAFPKB
TAF AMD
KPKB 020246Z 0203/0224 06002KT P6SM SCT200
     FM020600 00000KT 5SM BR SCT200
     FM020800 00000KT 2SM BR BKN002
     FM021200 00000KT 4SM BR SCT200
     FM021300 00000KT 6SM BR SCT200
     FM021400 VRB02KT P6SM SCT250=



000
FTUS41 KRLX 020200 AAB
TAFCRW
TAF AMD
KCRW 020246Z 0203/0224 00000KT 4SM BR SCT200
      TEMPO 0203/0204 2SM BR SCT001
     FM020400 00000KT 1 1/2SM BR BKN001
     FM020600 00000KT 1/4SM FG VV001
     FM021200 00000KT 2SM BR BKN002
     FM021300 00000KT 4SM BR SCT002
     FM021400 VRB02KT P6SM SCT250=



000
FTUS41 KRLX 020200 AAB
TAFHTS
TAF AMD
KHTS 020246Z 0203/0224 06002KT 6SM BR SCT200
     FM020600 00000KT 5SM BR SCT200
     FM020800 00000KT 1 1/2SM BR SCT001
     FM020900 00000KT 1/2SM FG VV001
     FM021200 00000KT 2SM BR BKN002
     FM021300 00000KT 5SM BR SCT200
     FM021400 00000KT P6SM SCT250
     FM021700 VRB03KT P6SM FEW050=



000
FTUS41 KRLX 020200 AAB
TAFEKN
TAF AMD
KEKN 020246Z 0203/0224 00000KT 2SM BR SCT001
      TEMPO 0203/0205 3/4SM BR BKN001
     FM020500 00000KT 1/4SM FG VV001
     FM021230 00000KT 2SM BR BKN002
     FM021400 00000KT 5SM BR SCT002
     FM021500 32003KT P6SM SCT250=



000
FTUS41 KRLX 020200 AAB
TAFBKW
TAF AMD
KBKW 020246Z 0203/0224 15002KT P6SM SCT200
     FM021500 28003KT P6SM FEW045
     FM021800 30004KT P6SM SCT200=



000
FTUS41 KRLX 020200 AAB
TAFCKB
TAF AMD
KCKB 020246Z 0203/0224 00000KT 1/2SM FG OVC002
      TEMPO 0203/0205 2SM BR BKN002
     FM021300 00000KT 5SM BR SCT003
     FM021400 VRB02KT P6SM SCT250=



000
FTUS41 KRLX 020100 AAA
TAFEKN
TAF AMD
KEKN 020134Z 0202/0224 VRB02KT P6SM SCT030
     FM020500 00000KT 5SM BR SCT200
     FM020600 00000KT 2SM BR BKN001
     FM020700 00000KT 1/4SM FG VV001
     FM021230 00000KT 2SM BR BKN002
     FM021400 00000KT 5SM BR SCT002
     FM021500 32003KT P6SM SCT250=



000
FTUS41 KRLX 020100 AAA
TAFBKW
TAF AMD
KBKW 020134Z 0202/0224 15002KT P6SM SCT200
     FM021500 28003KT P6SM FEW045
     FM021800 30004KT P6SM SCT200=



000
FTUS41 KRLX 020100 AAA
TAFHTS
TAF AMD
KHTS 020134Z 0202/0224 06002KT 6SM BR SCT200
     FM020600 00000KT 5SM BR SCT200
     FM020800 00000KT 1 1/2SM BR SCT001
     FM020900 00000KT 1/2SM FG VV001
     FM021200 00000KT 2SM BR BKN002
     FM021300 00000KT 5SM BR SCT200
     FM021400 00000KT P6SM SCT250
     FM021700 VRB03KT P6SM FEW050=



000
FTUS41 KRLX 020100 AAA
TAFCKB
TAF AMD
KCKB 020134Z 0202/0224 07002KT 6SM BR SCT200
     FM020600 00000KT 4SM BR SCT200
     FM020800 00000KT 2SM BR BKN002
     FM021300 00000KT 5SM BR SCT200
     FM021400 VRB02KT P6SM SCT250=



000
FTUS41 KRLX 020100 AAA
TAFCRW
TAF AMD
KCRW 020134Z 0202/0224 00000KT 4SM BR SCT200
     FM020700 00000KT 1 1/2SM BR SCT001
     FM020800 00000KT 1/4SM FG VV001
     FM021200 00000KT 2SM BR BKN002
     FM021300 00000KT 4SM BR SCT002
     FM021400 VRB02KT P6SM SCT250=



000
FTUS41 KRLX 020100 AAA
TAFPKB
TAF AMD
KPKB 020134Z 0202/0224 06002KT P6SM SCT200
     FM020700 00000KT 5SM BR SCT200
     FM020900 00000KT 2SM BR BKN002
     FM021200 00000KT 4SM BR SCT200
     FM021300 00000KT 6SM BR SCT200
     FM021400 VRB02KT P6SM SCT250=



000
FTUS41 KRLX 012300
TAFCKB
TAF
KCKB 012324Z 0200/0224 07002KT P6SM SCT200
     FM020600 00000KT 5SM BR SCT200
     FM020800 00000KT 2SM BR BKN002
     FM021300 00000KT 5SM BR SCT200
     FM021400 VRB02KT P6SM SCT250=



000
FTUS41 KRLX 012300
TAFPKB
TAF
KPKB 012324Z 0200/0224 06002KT P6SM SCT200
     FM020700 00000KT 5SM BR SCT200
     FM020900 00000KT 2SM BR BKN002
     FM021200 00000KT 4SM BR SCT200
     FM021300 00000KT 6SM BR SCT200
     FM021400 VRB02KT P6SM SCT250=



000
FTUS41 KRLX 012300
TAFCRW
TAF
KCRW 012324Z 0200/0224 00000KT 6SM HZ SCT200
     FM020500 00000KT 4SM BR SCT200
     FM020700 00000KT 1 1/2SM BR SCT001
     FM020800 00000KT 1/4SM FG VV001
     FM021200 00000KT 2SM BR BKN002
     FM021300 00000KT 4SM BR SCT002
     FM021400 VRB02KT P6SM SCT250=



000
FTUS41 KRLX 012300
TAFHTS
TAF
KHTS 012324Z 0200/0224 06002KT 6SM HZ SCT200
     FM020600 00000KT 5SM BR SCT200
     FM020800 00000KT 1 1/2SM BR SCT001
     FM020900 00000KT 1/2SM FG VV001
     FM021200 00000KT 2SM BR BKN002
     FM021300 00000KT 5SM BR SCT200
     FM021400 00000KT P6SM SCT250
     FM021700 VRB03KT P6SM FEW050=



000
FTUS41 KRLX 012300
TAFBKW
TAF
KBKW 012324Z 0200/0224 31003KT P6SM SCT200
     FM020300 12002KT P6SM SCT200
     FM021500 28003KT P6SM FEW045
     FM021800 30004KT P6SM SCT200=



000
FTUS41 KRLX 012300
TAFEKN
TAF
KEKN 012324Z 0200/0224 31002KT P6SM SCT030
     FM020400 00000KT 5SM BR SCT200
     FM020500 00000KT 2SM BR BKN001
     FM020600 00000KT 1/4SM FG VV001
     FM021230 00000KT 2SM BR BKN002
     FM021400 00000KT 5SM BR SCT002
     FM021500 32003KT P6SM SCT250=



000
FTUS41 KRLX 011800 AAA
TAFBKW
TAF AMD
KBKW 011832Z 0119/0218 27007KT P6SM FEW040 BKN070
     FM021700 28004KT P6SM FEW045=



000
FTUS41 KRLX 011800 AAA
TAFCKB
TAF AMD
KCKB 011831Z 0119/0218 00000KT P6SM SCT008 BKN013 BKN020
     FM011900 VRB03KT P6SM SCT013 BKN020
     FM020900 00000KT 2SM BR SCT003
     FM021000 00000KT 3/4SM BR SCT003
     FM021300 00000KT 3SM BR FEW003
     FM021400 00000KT P6SM SCT250=



000
FTUS41 KRLX 011700
TAFBKW
TAF
KBKW 011731Z 0118/0218 24007G14KT P6SM FEW050
     FM012300 32004KT P6SM BKN200
     FM021700 28004KT P6SM FEW045=



000
FTUS41 KRLX 011700
TAFEKN
TAF
KEKN 011731Z 0118/0218 VRB03KT P6SM FEW045 SCT050
     FM020800 00000KT 4SM BR FEW003
     FM021000 00000KT 1/2SM FG VV001
     FM021300 00000KT 3SM BR FEW003
     FM021400 00000KT P6SM SCT250=



000
FTUS41 KRLX 011700
TAFPKB
TAF
KPKB 011731Z 0118/0218 VRB04KT P6SM SCT022 BKN035
     FM020400 00000KT 5SM BR FEW150
     FM020900 00000KT 2SM BR BKN003
     FM021300 00000KT 3SM BR FEW003
     FM021400 00000KT P6SM SCT250=



000
FTUS41 KRLX 011700
TAFCKB
TAF
KCKB 011731Z 0118/0218 34003KT 5SM BR BKN004 OVC013
     FM012000 VRB03KT 6SM BR BKN025
     FM012200 VRB03KT 6SM BR SCT025
     FM020900 00000KT 2SM BR SCT003
     FM021000 00000KT 3/4SM BR SCT003
     FM021300 00000KT 3SM BR FEW003
     FM021400 00000KT P6SM SCT250=



000
FTUS41 KRLX 011700
TAFCRW
TAF
KCRW 011731Z 0118/0218 34003KT P6SM OVC012
     FM012100 VRB03KT P6SM SCT025
     FM020600 00000KT 2SM BR FEW003
     FM020900 00000KT 3/4SM BR BKN003
     FM021000 00000KT 1/4SM FG BKN003
     FM021300 00000KT 3SM BR FEW003
     FM021400 00000KT P6SM SCT250=



000
FTUS41 KRLX 011700
TAFHTS
TAF
KHTS 011731Z 0118/0218 00000KT P6SM SCT015 OVC070
     FM020800 00000KT 4SM BR SCT003
     FM021000 00000KT 3/4SM BR SCT003
     FM021300 00000KT 3SM BR FEW003
     FM021400 00000KT P6SM SCT250=



000
FTUS41 KRLX 011700 AAD
TAFCKB
TAF AMD
KCKB 011700Z 0117/0212 34003KT 5SM BR BKN004 OVC013
     FM011900 00000KT 5SM BR SCT004 BKN013
     FM020400 00000KT 5SM BR SCT025
     FM020900 00000KT 2SM BR SCT002
     FM021100 00000KT 3/4SM BR SCT002=



000
FTUS41 KRLX 011500 AAB
TAFPKB
TAF AMD
KPKB 011545Z 0116/0212 00000KT 6SM HZ SCT009 BKN015 OVC030
     FM011700 27004KT 6SM HZ BKN020
     FM012100 25003KT 6SM HZ SCT025
     FM020500 00000KT 5SM BR FEW001
     FM020800 00000KT 2SM BR SCT002
     FM020900 00000KT 3/4SM BR SCT002=



000
FTUS41 KRLX 011500 AAB
TAFHTS
TAF AMD
KHTS 011545Z 0116/0212 19004KT 5SM HZ OVC010
     FM011900 27004KT P6SM SCT025
     FM012200 VRB03KT P6SM SCT025
     FM020500 00000KT 5SM BR FEW001
     FM020900 00000KT 2SM BR SCT002
     FM021100 00000KT 3/4SM BR SCT002=



000
FTUS41 KRLX 011500 AAC
TAFCKB
TAF AMD
KCKB 011545Z 0116/0212 00000KT P6SM OVC006
     FM011700 25004KT 6SM HZ BKN020
     FM020400 00000KT 5SM BR SCT025
     FM020900 00000KT 2SM BR SCT002
     FM021100 00000KT 3/4SM BR SCT002=



000
FTUS41 KRLX 011400 AAB
TAFCKB
TAF AMD
KCKB 011431Z 0115/0212 01003KT 1SM BR OVC002
     FM011600 00000KT 3SM BR OVC014
     FM011700 25004KT 6SM HZ BKN020
     FM020400 00000KT 5SM BR SCT025
     FM020900 00000KT 2SM BR SCT002
     FM021100 00000KT 3/4SM BR SCT002=



000
FTUS41 KRLX 011400 AAA
TAFPKB
TAF AMD
KPKB 011431Z 0115/0212 03003KT 5SM BR OVC006
     FM011700 27004KT 6SM HZ BKN020
     FM012100 25003KT 6SM HZ SCT025
     FM020500 00000KT 5SM BR FEW001
     FM020800 00000KT 2SM BR SCT002
     FM020900 00000KT 3/4SM BR SCT002=



000
FTUS41 KRLX 011400 AAA
TAFHTS
TAF AMD
KHTS 011431Z 0115/0212 00000KT P6SM OVC008
     FM011900 27004KT P6SM SCT025
     FM012200 VRB03KT P6SM SCT025
     FM020500 00000KT 5SM BR FEW001
     FM020900 00000KT 2SM BR SCT002
     FM021100 00000KT 3/4SM BR SCT002=



000
FTUS41 KRLX 011400 AAB
TAFEKN
TAF AMD
KEKN 011431Z 0115/0212 00000KT 3SM BR OVC002
     FM011600 VRB03KT 4SM BR SCT004 BKN035
     FM011800 VRB03KT P6SM BKN035
     FM020400 VRB03KT 5SM BR FEW001
     FM020800 00000KT 1/2SM FG BKN002=



000
FTUS41 KRLX 011400 AAA
TAFCRW
TAF AMD
KCRW 011431Z 0115/0212 00000KT 5SM BR FEW001 OVC008
     FM011600 27004KT P6SM BKN010
     FM011800 27004KT P6SM BKN024
     FM012100 VRB03KT P6SM SCT025
     FM020400 00000KT 4SM BR SCT002
     FM020700 00000KT 2SM BR BKN001
     FM020900 00000KT 1/2SM FG BKN002=



000
FTUS41 KRLX 011400 AAA
TAFBKW
TAF AMD
KBKW 011431Z 0115/0212 23004KT P6SM SKC
     FM011600 28005KT P6SM SCT050
     FM012300 VRB03KT P6SM SKC=



000
FTUS41 KRLX 011400 AAA
TAFCKB
TAF AMD
KCKB 011421Z 0114/0212 01003KT 1SM BR OVC002
     FM011600 00000KT 3SM BR OVC014
     FM011700 25004KT 6SM HZ BKN020
     FM020400 00000KT 5SM BR SCT025
     FM020900 00000KT 2SM BR SCT002
     FM021100 00000KT 3/4SM BR SCT002=



000
FTUS41 KRLX 011400 AAA
TAFEKN
TAF AMD
KEKN 011409Z 0114/0212 00000KT 2SM BR OVC002
     FM011600 VRB03KT 4SM BR SCT004 BKN035
     FM011800 VRB03KT P6SM BKN035
     FM020400 VRB03KT 5SM BR FEW001
     FM020800 00000KT 1/2SM FG BKN002=



000
FTUS41 KRLX 011100
TAFHTS
TAF
KHTS 011136Z 0112/0212 02004KT 6SM BR OVC010
     FM011400 VRB03KT 6SM HZ BKN015
     FM011900 27004KT P6SM SCT025
     FM012200 VRB03KT P6SM SCT025
     FM020500 00000KT 5SM BR FEW001
     FM020900 00000KT 2SM BR SCT002
     FM021100 00000KT 3/4SM BR SCT002=



000
FTUS41 KRLX 011100
TAFBKW
TAF
KBKW 011136Z 0112/0212 00000KT P6SM SCT050
     FM011400 VRB03KT P6SM BKN040
     FM011600 28005KT P6SM SCT050
     FM012300 VRB03KT P6SM SKC=



000
FTUS41 KRLX 011100
TAFCKB
TAF
KCKB 011136Z 0112/0212 00000KT 1/4SM FG VV002
     FM011400 00000KT 2SM BR OVC008
     FM011500 00000KT 4SM HZ OVC014
     FM011700 25004KT 6SM HZ BKN020
     FM020100 00000KT 6SM BR SCT025
     FM020400 00000KT 5SM BR SCT025
     FM020900 00000KT 2SM BR SCT002
     FM021100 00000KT 3/4SM BR SCT002=



000
FTUS41 KRLX 011100
TAFPKB
TAF
KPKB 011136Z 0112/0212 00000KT 5SM BR OVC008
     FM011400 00000KT 5SM HZ OVC012
     FM011700 27004KT 6SM HZ BKN020
     FM012100 25003KT 6SM HZ SCT025
     FM020500 00000KT 5SM BR FEW001
     FM020800 00000KT 2SM BR SCT002
     FM020900 00000KT 3/4SM BR SCT002=



000
FTUS41 KRLX 011100
TAFCRW
TAF
KCRW 011136Z 0112/0212 00000KT 4SM BR OVC007
     FM011400 VRB03KT 6SM HZ BKN015
     FM011800 27004KT P6SM BKN024
     FM012100 VRB03KT P6SM SCT025
     FM020400 00000KT 4SM BR SCT002
     FM020700 00000KT 2SM BR BKN001
     FM020900 00000KT 1/2SM FG BKN002=



000
FTUS41 KRLX 011100
TAFEKN
TAF
KEKN 011136Z 0112/0212 00000KT 1/4SM FG OVC002
     FM011400 VRB03KT 5SM BR SCT002 BKN026
     FM011800 VRB03KT P6SM BKN035
     FM020400 VRB03KT 5SM BR FEW001
     FM020800 00000KT 1/2SM FG BKN002=



000
FTUS41 KRLX 010800 AAA
TAFBKW
TAF AMD
KBKW 010829Z 0108/0206 00000KT P6SM SCT050
      TEMPO 0109/0112 5SM BR SCT001
     FM011400 VRB03KT P6SM BKN040
     FM011600 28005KT P6SM SCT050
     FM012300 VRB03KT P6SM SCT040=



000
FTUS41 KRLX 010800 AAA
TAFEKN
TAF AMD
KEKN 010829Z 0108/0206 00000KT 4SM BR BKN035
      TEMPO 0109/0112 1SM BR SCT001
     FM011400 VRB03KT P6SM BKN026
     FM012000 VRB03KT P6SM BKN035
     FM020400 VRB03KT 5SM BR FEW001=



000
FTUS41 KRLX 010800 AAB
TAFCKB
TAF AMD
KCKB 010829Z 0108/0206 00000KT 1/2SM FG BKN001
      TEMPO 0110/0112 2SM BR BKN008
     FM011200 00000KT 2SM BR OVC008
     FM011300 00000KT 4SM HZ OVC014
     FM011700 25004KT 6SM HZ BKN020
     FM020100 00000KT 6SM BR SCT025
     FM020400 00000KT 5SM BR SCT025=



000
FTUS41 KRLX 010800 AAA
TAFCRW
TAF AMD
KCRW 010829Z 0108/0206 00000KT 5SM BR OVC007
     FM011400 VRB03KT 6SM HZ BKN015
     FM011800 27004KT P6SM BKN024
     FM012100 VRB03KT P6SM SCT025
     FM020400 00000KT 4SM BR SCT002=



000
FTUS41 KRLX 010800 AAA
TAFPKB
TAF AMD
KPKB 010829Z 0108/0206 00000KT 6SM BR OVC008
      TEMPO 0108/0112 4SM BR
     FM011400 00000KT 5SM HZ OVC012
     FM011700 27004KT 6SM HZ BKN020
     FM012100 25003KT 6SM HZ SCT025
     FM020500 00000KT 5SM BR FEW001=



000
FTUS41 KRLX 010800 AAA
TAFHTS
TAF AMD
KHTS 010829Z 0108/0206 02004KT 6SM BR OVC012
     FM011400 VRB03KT 6SM HZ BKN015
     FM011900 27004KT P6SM SCT025
     FM012200 VRB03KT P6SM SCT025
     FM020500 00000KT 5SM BR FEW001=



000
FTUS41 KRLX 010700 AAA
TAFCKB
TAF AMD
KCKB 010717Z 0107/0206 00000KT 1SM BR BKN001
      TEMPO 0108/0112 2SM BR BKN008
     FM011200 00000KT 2SM BR OVC008
     FM011300 00000KT 4SM HZ BKN014
     FM011700 25004KT 6SM HZ BKN020
     FM020100 00000KT 6SM BR SCT025
     FM020400 00000KT 5SM BR SCT025=



000
FTUS41 KRLX 010500 RRA
TAFEKN
TAF
KEKN 010553Z 0106/0206 VRB03KT 6SM BR BKN050
     FM010800 00000KT 5SM BR BKN035
      TEMPO 0108/0112 2SM BR SCT001
     FM011400 VRB03KT P6SM BKN026
     FM012000 VRB03KT P6SM BKN035
     FM020400 VRB03KT 5SM BR FEW001=



000
FTUS41 KRLX 010500 RRA
TAFBKW
TAF
KBKW 010553Z 0106/0206 00000KT P6SM SCT050
      TEMPO 0109/0112 4SM BR SCT001
     FM011400 VRB03KT P6SM BKN040
     FM011600 28005KT P6SM SCT050
     FM012300 VRB03KT P6SM SCT040=



000
FTUS41 KRLX 010500 RRA
TAFCKB
TAF
KCKB 010553Z 0106/0206 00000KT 4SM BR SCT010
     FM010800 00000KT 2SM BR BKN010
     FM011300 00000KT 4SM HZ BKN014
     FM011700 25004KT 6SM HZ BKN020
     FM020100 00000KT 6SM BR SCT025
     FM020400 00000KT 5SM BR SCT025=



000
FTUS41 KRLX 010500 RRA
TAFCRW
TAF
KCRW 010553Z 0106/0206 VRB03KT P6SM SCT020
     FM010900 00000KT 6SM BR BKN018
     FM011000 00000KT 6SM BR BKN010
     FM011400 VRB03KT 6SM HZ BKN015
     FM011800 27004KT P6SM BKN024
     FM012100 VRB03KT P6SM SCT025
     FM020400 00000KT 4SM BR SCT002=



000
FTUS41 KRLX 010500 RRA
TAFPKB
TAF
KPKB 010553Z 0106/0206 02004KT P6SM BKN014
     FM010800 00000KT 6SM BR OVC008
      TEMPO 0108/0112 4SM BR
     FM011400 00000KT 5SM HZ BKN012
     FM011700 27004KT 6SM HZ BKN020
     FM012100 25003KT 6SM HZ SCT025
     FM020500 00000KT 5SM BR FEW001=



000
FTUS41 KRLX 010500 RRA
TAFHTS
TAF
KHTS 010553Z 0106/0206 02004KT 6SM BR BKN015
     FM011000 00000KT 6SM BR OVC010
     FM011400 VRB03KT 6SM HZ BKN015
     FM011900 27004KT P6SM SCT025
     FM012200 VRB03KT P6SM SCT025
     FM020500 00000KT 5SM BR FEW001=



000
FTUS41 KRLX 010200 AAA
TAFCRW
TAF AMD
KCRW 010257Z 0103/0124 01007KT P6SM OVC060
     FM010700 00000KT 6SM BR BKN018
     FM010900 00000KT 6SM BR BKN008
     FM011600 00000KT P6SM SCT010
     FM011900 VRB03KT P6SM SCT040=



000
FTUS41 KRLX 010200 AAA
TAFPKB
TAF AMD
KPKB 010257Z 0103/0124 32003KT P6SM FEW022 BKN030 OVC045
     FM010600 00000KT 6SM BR BKN022
     FM010800 00000KT 6SM BR BKN010
     FM011500 00000KT P6SM SCT014
     FM011800 VRB03KT P6SM SCT040=



000
FTUS41 KRLX 010200 AAA
TAFEKN
TAF AMD
KEKN 010257Z 0103/0124 25003KT P6SM BKN070 BKN110
     FM011100 00000KT 6SM BR BKN024
     FM011600 00000KT P6SM SCT020
     FM012000 VRB03KT P6SM BKN040=



000
FTUS41 KRLX 010200 AAA
TAFHTS
TAF AMD
KHTS 010257Z 0103/0124 02004KT P6SM BKN060 BKN080
     FM010400 00000KT 6SM BR BKN060
     FM010600 00000KT 6SM BR BKN010
     FM011500 00000KT P6SM SCT012
     FM011900 VRB03KT P6SM SCT040=



000
FTUS41 KRLX 010200 AAA
TAFBKW
TAF AMD
KBKW 010257Z 0103/0124 19005KT P6SM SKC
     FM010500 00000KT P6SM FEW035
     FM011200 00000KT P6SM BKN015
     FM011400 00000KT P6SM SCT015
     FM011800 27006KT P6SM FEW025
     FM012300 31004KT P6SM SCT040=



000
FTUS41 KRLX 010200 AAA
TAFCKB
TAF AMD
KCKB 010257Z 0103/0124 14003KT P6SM SCT045 BKN060 BKN070
     FM010400 00000KT 6SM BR BKN060
     FM011000 00000KT 6SM BR BKN012
     FM011600 00000KT P6SM SCT012
     FM011700 VRB03KT P6SM SCT035=



000
FTUS41 KRLX 302300
TAFEKN
TAF
KEKN 302334Z 0100/0124 00000KT P6SM FEW080
     FM010100 00000KT 6SM BR BKN100
     FM011100 00000KT 6SM BR BKN024
     FM011600 00000KT P6SM SCT020
     FM012000 VRB03KT P6SM BKN040=



000
FTUS41 KRLX 302300
TAFPKB
TAF
KPKB 302334Z 0100/0124 00000KT P6SM BKN060 BKN080 BKN110
     FM010400 00000KT 6SM BR BKN035
     FM010700 00000KT 6SM BR BKN025
     FM010900 00000KT 6SM BR BKN010
     FM011500 00000KT P6SM SCT014
     FM011800 VRB03KT P6SM SCT040=



000
FTUS41 KRLX 302300
TAFCRW
TAF
KCRW 302334Z 0100/0124 22005KT P6SM SCT060 BKN090 BKN110
     FM010300 00000KT 6SM BR BKN060
     FM010600 00000KT 6SM BR BKN018
     FM010800 00000KT 6SM BR BKN008
     FM011600 00000KT P6SM SCT010
     FM011900 VRB03KT P6SM SCT040=



000
FTUS41 KRLX 302300
TAFBKW
TAF
KBKW 302334Z 0100/0124 28003KT P6SM SKC
     FM010500 00000KT P6SM FEW035
     FM011200 00000KT P6SM BKN015
     FM011400 00000KT P6SM SCT015
     FM011800 27006KT P6SM FEW025
     FM012300 31004KT P6SM SCT040=



000
FTUS41 KRLX 302300
TAFCKB
TAF
KCKB 302334Z 0100/0124 11003KT P6SM BKN070 OVC080
     FM010200 00000KT 6SM BR VCTS BKN070CB
     FM010400 00000KT 6SM BR BKN060
     FM011000 00000KT 6SM BR BKN008
     FM011600 00000KT P6SM SCT012
     FM011700 VRB03KT P6SM SCT035=



000
FTUS41 KRLX 302300
TAFHTS
TAF
KHTS 302334Z 0100/0124 24003KT P6SM BKN070 BKN090 OVC110
     FM010400 00000KT 6SM BR BKN060
     FM010500 00000KT 6SM BR BKN010
     FM011500 00000KT P6SM SCT012
     FM011900 VRB03KT P6SM SCT040=



000
FTUS41 KRLX 302100 AAA
TAFEKN
TAF AMD
KEKN 302103Z 3021/0118 31008KT P6SM FEW060 FEW070 BKN090
     FM302200 27004KT P6SM BKN040
     FM010200 VRB03KT P6SM VCSH BKN035
     FM010600 00000KT 4SM BR BKN035
     FM010900 00000KT 2SM BR BKN014
     FM011400 00000KT 3SM BR SCT020
     FM011500 00000KT P6SM SCT020=



000
FTUS41 KRLX 302100 AAA
TAFBKW
TAF AMD
KBKW 302103Z 3021/0118 33007KT P6SM FEW060
     FM010000 00000KT P6SM SCT250
     FM011400 00000KT P6SM SCT025=



000
FTUS41 KRLX 302100 AAA
TAFHTS
TAF AMD
KHTS 302103Z 3021/0118 27004KT P6SM SCT050
      TEMPO 3021/3022 5SM -SHRA
     FM302300 00000KT P6SM BKN250
     FM010600 00000KT P6SM BKN010
     FM011500 00000KT P6SM SCT015=



000
FTUS41 KRLX 302100 AAA
TAFCKB
TAF AMD
KCKB 302103Z 3021/0118 09007KT 3SM RA BR SCT050 BKN070 OVC090
     FM302200 04006KT P6SM SCT050
     FM010000 00000KT P6SM VCSH SCT050 BKN250
     FM010400 00000KT P6SM BKN025=



000
FTUS41 KRLX 302100 AAA
TAFPKB
TAF AMD
KPKB 302103Z 3021/0118 00000KT P6SM OVC050
      TEMPO 3021/3022 5SM -SHRA
     FM302300 01004KT P6SM BKN050
     FM010300 00000KT P6SM BKN010
     FM011100 00000KT P6SM SCT010=



000
FTUS41 KRLX 302100 AAA
TAFCRW
TAF AMD
KCRW 302103Z 3021/0118 25007KT P6SM SCT050 SCT080 BKN110
     FM302300 00000KT P6SM BKN250
     FM010800 00000KT P6SM BKN010
     FM011500 00000KT 6SM BR SCT008=



000
FTUS41 KRLX 301700
TAFCRW
TAF
KCRW 301740Z 3018/0118 30004KT P6SM FEW035 SCT250
     FM302300 00000KT P6SM BKN250
     FM010800 00000KT P6SM BKN010
     FM011500 00000KT 6SM BR SCT008=



000
FTUS41 KRLX 301700
TAFBKW
TAF
KBKW 301740Z 3018/0118 30006KT P6SM SCT250
     FM010000 00000KT P6SM SCT250
     FM011400 00000KT P6SM SCT025=



000
FTUS41 KRLX 301700
TAFHTS
TAF
KHTS 301740Z 3018/0118 28005KT P6SM FEW035 SCT250
     FM302300 00000KT P6SM BKN250
     FM010600 00000KT P6SM BKN010
     FM011500 00000KT P6SM SCT015=



000
FTUS41 KRLX 301700
TAFCKB
TAF
KCKB 301740Z 3018/0118 26005KT P6SM SCT008
     FM010000 00000KT P6SM VCSH SCT050 BKN250
     FM010400 00000KT P6SM BKN250=



000
FTUS41 KRLX 301700
TAFPKB
TAF
KPKB 301740Z 3018/0118 28006KT P6SM BKN250
     FM302300 01004KT P6SM BKN050
     FM010300 00000KT P6SM BKN010
     FM011100 00000KT P6SM SCT010=



000
FTUS41 KRLX 301700
TAFEKN
TAF
KEKN 301740Z 3018/0118 32005KT P6SM SCT250
     FM302200 27004KT P6SM BKN040
     FM010200 VRB03KT P6SM VCSH BKN035
     FM010600 00000KT 4SM BR BKN035
     FM010900 00000KT 2SM BR BKN014
     FM011400 00000KT 3SM BR SCT020
     FM011500 00000KT P6SM SCT020=



000
FTUS41 KRLX 301200 AAA
TAFBKW
TAF AMD
KBKW 301243Z 3013/0112 27004KT 4SM BR SCT002
     FM301400 28006KT P6SM FEW005
     FM302200 31005KT P6SM FEW045
     FM010800 VRB03KT 6SM BR BKN040=



000
FTUS41 KRLX 301100
TAFCKB
TAF
KCKB 301132Z 3012/0112 00000KT 6SM BR SCT001
     FM301300 VRB03KT P6SM SCT045
     FM301400 25006KT P6SM SCT045
     FM301800 26007KT P6SM BKN045
     FM302100 26006KT P6SM VCSH BKN040
     FM010200 VRB03KT 6SM HZ BKN040
     FM010800 00000KT 5SM BR BKN014=



000
FTUS41 KRLX 301100
TAFPKB
TAF
KPKB 301132Z 3012/0112 00000KT 1/2SM FG BKN001
     FM301300 VRB03KT 4SM BR FEW010
     FM301400 00000KT P6SM SCT045
     FM301600 25007KT P6SM BKN045
     FM302100 31005KT 6SM HZ VCSH BKN045
     FM010200 34003KT 6SM HZ BKN020
     FM010500 VRB03KT 5SM BR OVC014
     FM010800 00000KT 4SM BR OVC009=



000
FTUS41 KRLX 301100
TAFCRW
TAF
KCRW 301132Z 3012/0112 00000KT 1/2SM FG VV001
     FM301300 00000KT 2SM BR BKN002
     FM301400 VRB03KT P6SM SKC
     FM301600 26006KT P6SM FEW045
     FM302300 26004KT P6SM BKN045
     FM010600 00000KT 5SM BR BKN045
     FM010900 00000KT 2SM BR SCT010=



000
FTUS41 KRLX 301100
TAFBKW
TAF
KBKW 301132Z 3012/0112 16003KT 1/2SM FG BKN001
     FM301300 27004KT 4SM BR SCT002
     FM301400 28006KT P6SM FEW005
     FM302200 31005KT P6SM FEW045
     FM010800 VRB03KT 6SM BR BKN040=



000
FTUS41 KRLX 301100
TAFHTS
TAF
KHTS 301132Z 3012/0112 00000KT 1/2SM FG BKN001
     FM301300 VRB03KT 4SM BR SCT010
     FM301400 26006KT P6SM FEW050
     FM302200 29004KT P6SM BKN050
     FM010600 VRB03KT 4SM BR BKN015
     FM010900 VRB03KT 2SM BR OVC010=



000
FTUS41 KRLX 301100
TAFEKN
TAF
KEKN 301132Z 3012/0112 00000KT 1/2SM FG VV001
     FM301300 00000KT 2SM BR BKN010
     FM301400 VRB03KT P6SM SCT030
     FM301600 26005KT P6SM SCT040
     FM302200 27004KT P6SM VCSH BKN040
     FM010200 VRB03KT 6SM BR BKN035
     FM010600 00000KT 4SM BR BKN035
     FM010900 00000KT 2SM BR BKN014=



000
FTUS41 KRLX 301000 AAB
TAFBKW
TAF AMD
KBKW 301023Z 3010/0106 16003KT 4SM BR FEW001
      TEMPO 3010/3012 1/2SM FG SCT001
     FM301300 27004KT P6SM SKC
     FM301600 28006KT P6SM SKC
     FM302200 31005KT P6SM FEW045=



000
FTUS41 KRLX 300800 AAA
TAFCRW
TAF AMD
KCRW 300804Z 3008/0106 00000KT 1/2SM FG VV001
     FM301300 00000KT 2SM BR SCT002
     FM301400 VRB03KT P6SM SKC
     FM301600 26006KT P6SM FEW045
     FM302300 26004KT P6SM BKN045=



000
FTUS41 KRLX 300800 AAA
TAFPKB
TAF AMD
KPKB 300804Z 3008/0106 00000KT 1/2SM FG VV001
     FM301300 VRB03KT 3SM BR FEW010
     FM301400 00000KT P6SM SCT045
     FM301600 25007KT P6SM BKN045
     FM302100 31005KT 6SM HZ VCSH BKN045
     FM010200 34003KT 6SM HZ BKN020
     FM010500 VRB03KT 5SM BR OVC014=



000
FTUS41 KRLX 300800 AAA
TAFEKN
TAF AMD
KEKN 300804Z 3008/0106 00000KT 1SM BR BKN002
     FM300900 00000KT 1/4SM FG VV001
     FM301300 00000KT 2SM BR SCT001
     FM301400 VRB03KT P6SM SCT030
     FM301600 26005KT P6SM SCT040
     FM302200 27004KT P6SM VCSH BKN040
     FM010200 VRB03KT 6SM BR BKN035=



000
FTUS41 KRLX 300800 AAA
TAFCKB
TAF AMD
KCKB 300804Z 3008/0106 00000KT 1SM BR SCT001
      TEMPO 3008/3012 1/2SM FG BKN001
     FM301300 VRB03KT 3SM BR SCT002 SCT045
     FM301400 25006KT P6SM SCT045
     FM301800 26007KT P6SM BKN045
     FM302100 26006KT P6SM VCSH BKN040
     FM010200 VRB03KT 6SM HZ BKN040=



000
FTUS41 KRLX 300800 AAA
TAFBKW
TAF AMD
KBKW 300804Z 3008/0106 16003KT 1SM BR SCT001
      TEMPO 3008/3012 1/2SM FG BKN001
     FM301300 27004KT P6SM SKC
     FM301600 28006KT P6SM SKC
     FM302200 31005KT P6SM FEW045=



000
FTUS41 KRLX 300800 AAA
TAFHTS
TAF AMD
KHTS 300804Z 3008/0106 00000KT 4SM BR FEW001
     FM300900 00000KT 3/4SM BR BKN001
     FM301300 VRB03KT P6SM SCT010
     FM301400 26006KT P6SM FEW050
     FM302200 29004KT P6SM BKN050=



000
FTUS41 KRLX 300500
TAFCKB
TAF
KCKB 300524Z 3006/0106 00000KT 2SM BR FEW001
     FM300700 00000KT 1/2SM FG VV001
     FM301300 VRB03KT 3SM BR SCT002 SCT045
     FM301400 25006KT P6SM SCT045
     FM301800 26007KT P6SM BKN045
     FM302100 26006KT P6SM VCSH BKN040
     FM010200 VRB03KT 6SM HZ BKN040=



000
FTUS41 KRLX 300500
TAFBKW
TAF
KBKW 300524Z 3006/0106 16003KT 4SM BR FEW001
      TEMPO 3008/3012 2SM BR BKN001
     FM301300 27004KT P6SM SKC
     FM301600 28006KT P6SM SKC
     FM302200 31005KT P6SM FEW045=



000
FTUS41 KRLX 300500
TAFCRW
TAF
KCRW 300524Z 3006/0106 00000KT 2SM BR SCT001
     FM300800 00000KT 1/2SM FG VV001
     FM301300 00000KT 3SM BR SCT002
     FM301400 VRB03KT P6SM SKC
     FM301600 26006KT P6SM FEW045
     FM302300 26004KT P6SM BKN045=



000
FTUS41 KRLX 300500
TAFHTS
TAF
KHTS 300524Z 3006/0106 00000KT 4SM BR FEW001
     FM300800 00000KT 1/2SM FG BKN001
     FM301300 VRB03KT P6SM SCT010
     FM301400 26006KT P6SM FEW050
     FM302200 29004KT P6SM BKN050=



000
FTUS41 KRLX 300500
TAFEKN
TAF
KEKN 300524Z 3006/0106 00000KT 1/4SM FG VV001
     FM301300 00000KT 2SM BR SCT001
     FM301400 VRB03KT P6SM SCT030
     FM301600 26005KT P6SM SCT040
     FM302200 27004KT P6SM VCSH BKN040
     FM010200 VRB03KT 6SM BR BKN035=



000
FTUS41 KRLX 300500
TAFPKB
TAF
KPKB 300524Z 3006/0106 00000KT 5SM BR FEW001
     FM300800 00000KT 1/2SM FG VV001
     FM301300 VRB03KT 3SM BR FEW010
     FM301400 00000KT P6SM SCT045
     FM301600 25007KT P6SM BKN045
     FM302100 31005KT 6SM HZ VCSH BKN045
     FM010200 34003KT 6SM HZ BKN020
     FM010500 VRB03KT 5SM BR OVC014=



000
FTUS41 KRLX 300200 AAA
TAFCKB
TAF AMD
KCKB 300259Z 3003/3024 00000KT P6SM SKC
     FM300600 00000KT 3SM BR BKN080
     FM300700 00000KT 2SM BR SCT070
     FM300730 00000KT 1/2SM FG VV001
     FM301300 00000KT 3SM BR SCT002 SCT045
     FM301330 28004KT P6SM SCT045=



000
FTUS41 KRLX 300200 AAA
TAFCRW
TAF AMD
KCRW 300259Z 3003/3024 00000KT P6SM SCT100
     FM300600 00000KT 2SM BR FEW080
     FM300630 00000KT 1/2SM FG VV001
     FM301300 00000KT 3SM BR SCT002 SCT250
     FM301330 00000KT P6SM SCT250=



000
FTUS41 KRLX 300200 AAA
TAFBKW
TAF AMD
KBKW 300259Z 3003/3024 16003KT 4SM BR SKC
     FM301400 29004KT P6SM SCT040=



000
FTUS41 KRLX 300200 AAA
TAFPKB
TAF AMD
KPKB 300259Z 3003/3024 00000KT P6SM SKC
     FM300400 00000KT 5SM BR BKN045
     FM300500 00000KT 1/2SM FG VV001
     FM301300 00000KT 3SM BR FEW045
     FM301330 00000KT P6SM SCT045
     FM301600 28005KT P6SM BKN045=



000
FTUS41 KRLX 300200 AAA
TAFEKN
TAF AMD
KEKN 300259Z 3003/3024 00000KT 3SM BR SCT250
     FM300400 00000KT 2SM BR SKC
     FM300500 00000KT 1/2SM FG VV001
     FM301300 00000KT 3SM BR SCT001 SCT060
     FM301330 28004KT P6SM SCT040=



000
FTUS41 KRLX 300200 AAA
TAFHTS
TAF AMD
KHTS 300259Z 3003/3024 00000KT 5SM BR SCT045
     FM300500 00000KT 2SM BR SKC
     FM300600 00000KT 1/2SM FG VV001
     FM301300 26004KT P6SM SCT045=



000
FTUS41 KRLX 292300
TAFCKB
TAF
KCKB 292329Z 3000/3024 00000KT P6SM SCT070
     FM300300 00000KT 6SM BR BKN250
     FM300800 00000KT 3SM BR BKN080
     FM300900 00000KT 2SM BR SCT070
     FM301100 00000KT 1/2SM FG VV001
     FM301300 00000KT 3SM BR SCT002 SCT045
     FM301330 28004KT P6SM SCT045=



000
FTUS41 KRLX 292300
TAFCRW
TAF
KCRW 292329Z 3000/3024 35010KT P6SM SCT100 SCT200
     FM300100 VRB04KT P6SM SCT100 SCT200
     FM300700 00000KT 2SM BR SCT080
     FM300800 00000KT 1/2SM FG VV001
     FM301300 00000KT 3SM BR SCT002 SCT250
     FM301330 00000KT P6SM SCT250=



000
FTUS41 KRLX 292300
TAFHTS
TAF
KHTS 292329Z 3000/3024 00000KT P6SM SCT045
     FM300200 00000KT P6SM BKN045
     FM300400 00000KT P6SM SCT045
     FM300500 00000KT 5SM BR SCT045
     FM300800 00000KT 3SM BR SCT250
     FM301100 00000KT 1 1/2SM BR SCT250
     FM301300 26004KT P6SM SCT045=



000
FTUS41 KRLX 292300
TAFPKB
TAF
KPKB 292329Z 3000/3024 00000KT P6SM SCT045
     FM300200 00000KT P6SM BKN045
     FM300400 00000KT 5SM BR BKN045
     FM300600 00000KT 1/2SM FG VV001
     FM301300 00000KT 3SM BR FEW045
     FM301330 00000KT P6SM SCT045
     FM301600 28005KT P6SM BKN045=



000
FTUS41 KRLX 292300
TAFBKW
TAF
KBKW 292329Z 3000/3024 00000KT P6SM BKN080
     FM301400 29004KT P6SM SCT040=



000
FTUS41 KRLX 292300
TAFEKN
TAF
KEKN 292329Z 3000/3024 00000KT P6SM SCT045
     FM300300 00000KT 4SM BR SCT045
     FM300400 00000KT 3SM BR BKN250
     FM300600 00000KT 1/2SM FG VV001
     FM301300 00000KT 3SM BR SCT001 SCT060
     FM301330 28004KT P6SM SCT040=



000
FTUS41 KRLX 292100 AAA
TAFPKB
TAF AMD
KPKB 292100Z 2921/3018 00000KT P6SM VCSH SCT040 BKN100
     FM300500 00000KT 6SM BR FEW040
     FM300800 00000KT 4SM BR FEW040
     FM301000 00000KT 2SM BR SCT001
     FM301300 00000KT 4SM BR FEW005
     FM301400 00000KT P6SM SCT250=



000
FTUS41 KRLX 292100 AAA
TAFBKW
TAF AMD
KBKW 292100Z 2921/3018 04003KT P6SM FEW030 BKN050 OVC080
      TEMPO 2921/2922 4SM -SHRA BKN030
     FM300600 00000KT 6SM BR SCT003
     FM301400 30006KT P6SM FEW030=



000
FTUS41 KRLX 292100 AAA
TAFEKN
TAF AMD
KEKN 292100Z 2921/3018 VRB05KT P6SM FEW045
     FM300300 00000KT 6SM BR SCT250
     FM300500 00000KT 3SM BR BKN250
     FM300700 00000KT 1/4SM FG OVC001
     FM301200 00000KT 1SM BR BKN001
     FM301400 00000KT 6SM BR SCT005 BKN012
     FM301500 00000KT P6SM SCT020=



000
FTUS41 KRLX 292100 AAA
TAFCKB
TAF AMD
KCKB 292100Z 2921/3018 00000KT P6SM SCT060
      TEMPO 2921/2922 2SM SHRA BKN030
     FM300800 00000KT 5SM BR SCT040
     FM301400 00000KT P6SM SCT035
     FM301700 26004KT P6SM SCT250=



000
FTUS41 KRLX 292100 AAA
TAFHTS
TAF AMD
KHTS 292100Z 2921/3018 VRB04KT P6SM SCT040
     FM300700 00000KT 6SM BR FEW035
     FM300900 00000KT 3SM BR FEW250
     FM301000 00000KT 1SM BR SCT250
     FM301400 00000KT 6SM BR SCT250=



000
FTUS41 KRLX 292100 AAA
TAFCRW
TAF AMD
KCRW 292100Z 2921/3018 26004KT P6SM SCT035 BKN080 BKN200
     FM300000 00000KT P6SM SCT250
     FM300700 00000KT 6SM BR SCT250
     FM300800 00000KT 3SM BR SCT250
     FM300900 00000KT 1SM BR SCT001
     FM301400 00000KT P6SM SCT250=



000
FTUS41 KRLX 291700
TAFEKN
TAF
KEKN 291732Z 2918/3018 30004KT P6SM FEW035 SCT100
     FM300300 00000KT 6SM BR SCT250
     FM300500 00000KT 3SM BR BKN250
     FM300700 00000KT 1/4SM FG OVC001
     FM301200 00000KT 1SM BR BKN001
     FM301400 00000KT 6SM BR SCT005 BKN012
     FM301500 00000KT P6SM SCT020=



000
FTUS41 KRLX 291700
TAFCRW
TAF
KCRW 291732Z 2918/3018 22006KT P6SM VCSH SCT030
     FM300000 00000KT P6SM SCT250
     FM300700 00000KT 6SM BR SCT250
     FM300800 00000KT 3SM BR SCT250
     FM300900 00000KT 1SM BR SCT001
     FM301400 00000KT P6SM SCT250=



000
FTUS41 KRLX 291700
TAFBKW
TAF
KBKW 291732Z 2918/3018 24005KT P6SM SCT035
     FM300600 00000KT 6SM BR SCT003
     FM301400 30006KT P6SM FEW030=



000
FTUS41 KRLX 291700
TAFHTS
TAF
KHTS 291732Z 2918/3018 22004KT P6SM SCT035 BKN080
     FM300700 00000KT 6SM BR FEW035
     FM300900 00000KT 3SM BR FEW250
     FM301000 00000KT 1SM BR SCT250
     FM301400 00000KT 6SM BR SCT250=



000
FTUS41 KRLX 291700
TAFPKB
TAF
KPKB 291732Z 2918/3018 VRB05KT P6SM SCT035
     FM300500 00000KT 6SM BR FEW040
     FM300800 00000KT 4SM BR FEW040
     FM301000 00000KT 2SM BR SCT001
     FM301300 00000KT 4SM BR FEW005
     FM301400 00000KT P6SM SCT250=



000
FTUS41 KRLX 291700
TAFCKB
TAF
KCKB 291732Z 2918/3018 27003KT P6SM FEW035
     FM300800 00000KT 5SM BR SCT040
     FM301400 00000KT P6SM SCT035
     FM301700 26004KT P6SM SCT250=



000
FTUS41 KRLX 291700 AAA
TAFCRW
TAF AMD
KCRW 291724Z 2917/3012 VRB03KT P6SM VCSH SCT030 BKN120
     FM300700 00000KT 6SM BR SCT045
     FM301000 00000KT 2SM BR FEW001 FEW050=



000
FTUS41 KRLX 291300 AAA
TAFHTS
TAF AMD
KHTS 291329Z 2913/3012 19005KT 6SM BR SCT050
     FM291400 00000KT P6SM BKN050
     FM292100 00000KT P6SM SCT050
     FM300900 00000KT 3SM BR FEW001
     FM301100 00000KT 1 1/2SM BR SCT001=



000
FTUS41 KRLX 291100
TAFBKW
TAF
KBKW 291128Z 2912/3012 00000KT P6SM BKN060
     FM291500 30004KT P6SM BKN040
     FM300100 00000KT P6SM BKN035=



000
FTUS41 KRLX 291100
TAFEKN
TAF
KEKN 291128Z 2912/3012 00000KT 6SM BR SCT020
      TEMPO 2912/2914 BKN020
     FM291400 00000KT P6SM FEW020 BKN200
     FM300800 00000KT 3SM BR SCT040
     FM300900 00000KT 1/2SM FG VV001
     FM301100 00000KT 4SM BR BKN025=



000
FTUS41 KRLX 291100
TAFHTS
TAF
KHTS 291128Z 2912/3012 VRB03KT 6SM BR BKN050 BKN150
      TEMPO 2912/2914 1SM BR FEW001
     FM291400 00000KT P6SM BKN050
     FM292100 00000KT P6SM SCT050
     FM300900 00000KT 3SM BR FEW001
     FM301100 00000KT 1 1/2SM BR SCT001=



000
FTUS41 KRLX 291100
TAFPKB
TAF
KPKB 291128Z 2912/3012 00000KT 1SM BR BKN001
     FM291300 00000KT 4SM BR SCT005
     FM291400 00000KT P6SM SCT060
     FM300500 00000KT 6SM BR FEW050
     FM300800 00000KT 4SM BR SCT200
     FM301000 00000KT 3SM BR FEW001
     FM301100 00000KT 2SM BR SCT001=



000
FTUS41 KRLX 291100
TAFCKB
TAF
KCKB 291128Z 2912/3012 00000KT P6SM BKN200
     FM291800 VRB03KT P6SM SCT035
     FM300800 00000KT 5SM BR SCT045=



000
FTUS41 KRLX 291100
TAFCRW
TAF
KCRW 291128Z 2912/3012 00000KT 6SM BR BKN060 BKN120
     FM291500 VRB03KT P6SM BKN045
     FM300700 00000KT 6SM BR SCT045
     FM301000 00000KT 2SM BR FEW001 FEW050=



    US Dept of Commerce
    National Oceanic and Atmospheric Administration
    National Weather Service
    1325 East West Highway
    Silver Spring, MD 20910
    Page Author: NWS Internet Services Team
Disclaimer
Information Quality
Credits
Glossary
Privacy Policy
Freedom of Information Act (FOIA)
About Us
Career Opportunities